Time;durP1;ratioP1;P1;durP2;ratioP2;P2;SDS_P1;SDS_P2;PMS_P1;PMS_P2;Temp;Humidity;BMP_temperature;BMP_pressure;BME280_temperature;BME280_humidity;BME280_pressure;Samples;Min_cycle;Max_cycle;Signal;HPM_P1;HPM_P2
2024/01/09 00:00:42;;;;;;;;;41.33;28.67;;;;;-146.67;100.00;57155.34;5062172;28;61937;-79
2024/01/09 00:03:08;;;;;;;;;45.00;25.67;;;;;-146.67;100.00;57155.34;5058954;28;63722;-80
2024/01/09 00:05:33;;;;;;;;;42.33;26.33;;;;;-146.67;100.00;57155.34;5061096;28;61732;-79
2024/01/09 00:07:58;;;;;;;;;38.00;30.00;;;;;-146.67;100.00;57155.34;5061370;28;61817;-80
2024/01/09 00:10:24;;;;;;;;;47.00;29.00;;;;;-146.67;100.00;57155.34;5060535;28;61975;-78
2024/01/09 00:12:49;;;;;;;;;31.67;25.00;;;;;-146.67;100.00;57155.34;5059736;28;64701;-79
2024/01/09 00:15:15;;;;;;;;;26.00;23.00;;;;;-146.67;100.00;57155.34;5043014;28;61793;-79
2024/01/09 00:17:43;;;;;;;;;37.00;32.00;;;;;-146.67;100.00;57155.34;5061261;28;61972;-79
2024/01/09 00:20:10;;;;;;;;;54.67;41.67;;;;;-146.67;100.00;57155.34;5060683;28;61969;-79
2024/01/09 00:22:35;;;;;;;;;37.33;28.00;;;;;-146.67;100.00;57155.34;5059174;28;62680;-79
2024/01/09 00:25:00;;;;;;;;;45.67;32.00;;;;;-146.67;100.00;57155.34;5059822;28;61877;-79
2024/01/09 00:27:26;;;;;;;;;31.00;25.33;;;;;-146.67;100.00;57155.34;5061245;28;62548;-80
2024/01/09 00:29:52;;;;;;;;;21.00;19.00;;;;;-146.67;100.00;57155.34;5061514;28;61987;-79
2024/01/09 00:32:17;;;;;;;;;20.67;16.00;;;;;-146.67;100.00;57155.34;5060831;28;63528;-79
2024/01/09 00:34:42;;;;;;;;;29.00;20.33;;;;;-146.67;100.00;57155.34;5063997;28;61787;-79
2024/01/09 00:37:08;;;;;;;;;26.00;20.00;;;;;-146.67;100.00;57155.34;5065046;28;61731;-79
2024/01/09 00:39:33;;;;;;;;;28.67;22.00;;;;;-146.67;100.00;57155.34;5047388;28;61799;-78
2024/01/09 00:41:59;;;;;;;;;21.50;14.25;;;;;-146.67;100.00;57155.34;5046474;28;63865;-80
2024/01/09 00:44:24;;;;;;;;;31.00;22.00;;;;;-146.67;100.00;57155.34;5064593;28;61741;-80
2024/01/09 00:46:49;;;;;;;;;24.00;21.33;;;;;-146.67;100.00;57155.34;5046742;28;61938;-80
2024/01/09 00:49:15;;;;;;;;;14.75;14.00;;;;;-146.67;100.00;57155.34;5064365;28;61819;-80
2024/01/09 00:51:40;;;;;;;;;30.33;22.33;;;;;-146.67;100.00;57155.34;5064302;28;61854;-80
2024/01/09 00:54:05;;;;;;;;;22.33;14.67;;;;;-146.67;100.00;57155.34;5064837;28;61921;-80
2024/01/09 00:56:31;;;;;;;;;17.00;16.33;;;;;-146.67;100.00;57155.34;5046433;28;62182;-80
2024/01/09 00:58:56;;;;;;;;;20.67;16.00;;;;;-146.67;100.00;57155.34;5065067;28;61918;-80
2024/01/09 01:01:22;;;;;;;;;17.67;15.33;;;;;-146.67;100.00;57155.34;5045585;28;63535;-80
2024/01/09 01:03:47;;;;;;;;;14.25;12.00;;;;;-146.67;100.00;57155.34;5063842;28;62018;-80
2024/01/09 01:06:12;;;;;;;;;20.67;16.00;;;;;-146.67;100.00;57155.34;5064390;28;61857;-80
2024/01/09 01:08:38;;;;;;;;;26.33;20.00;;;;;-146.67;100.00;57155.34;5064788;28;61748;-80
2024/01/09 01:11:05;;;;;;;;;24.50;18.75;;;;;-146.67;100.00;57155.34;5064119;28;61837;-80
2024/01/09 01:13:30;;;;;;;;;33.33;24.00;;;;;-146.67;100.00;57155.34;5046068;28;61816;-80
2024/01/09 01:15:56;;;;;;;;;22.50;15.25;;;;;-146.67;100.00;57155.34;5064944;28;61766;-80
2024/01/09 01:18:21;;;;;;;;;17.50;10.75;;;;;-146.67;100.00;57155.34;5064122;28;61802;-80
2024/01/09 01:20:47;;;;;;;;;29.00;20.67;;;;;-146.67;100.00;57155.34;5063896;28;62874;-79
2024/01/09 01:23:14;;;;;;;;;26.67;22.00;;;;;-146.67;100.00;57155.34;5064232;28;61821;-80
2024/01/09 01:25:40;;;;;;;;;16.75;14.50;;;;;-146.67;100.00;57155.34;5064658;28;61914;-80
2024/01/09 01:28:05;;;;;;;;;16.75;16.75;;;;;-146.67;100.00;57155.34;5063921;28;62040;-79
2024/01/09 01:30:30;;;;;;;;;28.00;16.00;;;;;-146.67;100.00;57155.34;5063440;28;62586;-80
2024/01/09 01:32:56;;;;;;;;;25.75;22.00;;;;;-146.67;100.00;57155.34;5063976;28;61723;-80
2024/01/09 01:35:21;;;;;;;;;23.33;16.00;;;;;-146.67;100.00;57155.34;5063797;28;61985;-80
2024/01/09 01:37:46;;;;;;;;;17.00;13.50;;;;;-146.67;100.00;57155.34;5064642;28;61677;-80
2024/01/09 01:40:12;;;;;;;;;19.00;16.00;;;;;-146.67;100.00;57155.34;5063566;28;61781;-80
2024/01/09 01:42:37;;;;;;;;;28.00;14.00;;;;;-146.67;100.00;57155.34;5064142;28;61953;-80
2024/01/09 01:45:15;;;;;;;;;21.75;18.50;;;;;-146.67;100.00;57155.34;5062983;28;62179;-79
2024/01/09 01:47:43;;;;;;;;;18.75;11.00;;;;;-146.67;100.00;57155.34;5064068;28;62131;-80
2024/01/09 01:50:08;;;;;;;;;24.33;16.67;;;;;-146.67;100.00;57155.34;5044847;28;63921;-80
2024/01/09 01:52:34;;;;;;;;;21.00;15.00;;;;;-146.67;100.00;57155.34;5063749;28;61895;-80
2024/01/09 01:54:59;;;;;;;;;14.50;13.00;;;;;-146.67;100.00;57155.34;5045767;28;62422;-78
2024/01/09 01:57:24;;;;;;;;;21.75;16.75;;;;;-146.67;100.00;57155.34;5045595;28;61912;-80
2024/01/09 01:59:50;;;;;;;;;23.00;18.25;;;;;-146.67;100.00;57155.34;5062205;28;61900;-79
2024/01/09 02:02:16;;;;;;;;;26.33;21.33;;;;;-146.67;100.00;57155.34;5045660;28;61807;-80
2024/01/09 02:04:43;;;;;;;;;17.75;13.00;;;;;-146.67;100.00;57155.34;5063167;28;61767;-80
2024/01/09 02:07:09;;;;;;;;;23.25;17.75;;;;;-146.67;100.00;57155.34;5063828;28;61898;-80
2024/01/09 02:09:37;;;;;;;;;22.67;17.00;;;;;-146.67;100.00;57155.34;5062860;28;62670;-79
2024/01/09 02:12:03;;;;;;;;;16.00;13.50;;;;;-146.67;100.00;57155.34;5063747;28;62005;-80
2024/01/09 02:14:28;;;;;;;;;27.00;17.75;;;;;-146.67;100.00;57155.34;5063035;28;61849;-80
2024/01/09 02:16:54;;;;;;;;;18.25;16.00;;;;;-146.67;100.00;57155.34;5045442;28;62103;-80
2024/01/09 02:19:19;;;;;;;;;16.00;12.50;;;;;-146.67;100.00;57155.34;5043271;28;65019;-80
2024/01/09 02:21:47;;;;;;;;;18.67;16.33;;;;;-146.67;100.00;57155.34;5042696;28;61929;-80
2024/01/09 02:24:12;;;;;;;;;22.25;16.75;;;;;-146.67;100.00;57155.34;5063017;28;61945;-80
2024/01/09 02:26:45;;;;;;;;;23.00;14.00;;;;;-146.67;100.00;57155.34;5062876;28;61774;-80
2024/01/09 02:29:20;;;;;;;;;22.75;13.00;;;;;-146.67;100.00;57155.34;5059733;28;64673;-80
2024/01/09 02:31:46;;;;;;;;;29.67;23.00;;;;;-146.67;100.00;57155.34;5062119;28;61983;-80
2024/01/09 02:34:14;;;;;;;;;16.00;12.00;;;;;-146.67;100.00;57155.34;5063125;28;61727;-80
2024/01/09 02:36:39;;;;;;;;;16.00;12.00;;;;;-146.67;100.00;57155.34;5063179;28;61869;-80
2024/01/09 02:39:05;;;;;;;;;27.33;23.33;;;;;-146.67;100.00;57155.34;5062788;28;61821;-80
2024/01/09 02:41:37;;;;;;;;;19.67;12.67;;;;;-146.67;100.00;57155.34;5044870;28;62028;-80
2024/01/09 02:44:02;;;;;;;;;29.33;17.33;;;;;-146.67;100.00;57155.34;5062478;28;61977;-79
2024/01/09 02:46:27;;;;;;;;;32.00;21.67;;;;;-146.67;100.00;57155.34;5063432;28;62535;-80
2024/01/09 02:48:53;;;;;;;;;17.50;14.00;;;;;-146.67;100.00;57155.34;5041577;28;63423;-79
2024/01/09 02:51:18;;;;;;;;;23.00;16.00;;;;;-146.67;100.00;57155.34;5063029;28;61620;-80
2024/01/09 02:53:43;;;;;;;;;28.67;22.33;;;;;-146.67;100.00;57155.34;5061288;28;61819;-80
2024/01/09 02:56:09;;;;;;;;;22.67;20.00;;;;;-146.67;100.00;57155.34;5063084;28;61997;-80
2024/01/09 02:58:34;;;;;;;;;17.50;13.75;;;;;-146.67;100.00;57155.34;5061889;28;62884;-80
2024/01/09 03:01:01;;;;;;;;;11.67;10.00;;;;;-146.67;100.00;57155.34;5044819;28;62086;-79
2024/01/09 03:03:26;;;;;;;;;16.25;12.50;;;;;-146.67;100.00;57155.34;5063023;28;61860;-80
2024/01/09 03:05:52;;;;;;;;;23.00;13.75;;;;;-146.67;100.00;57155.34;5044132;28;61911;-79
2024/01/09 03:08:17;;;;;;;;;19.25;13.00;;;;;-146.67;100.00;57155.34;5062321;28;63461;-80
2024/01/09 03:10:42;;;;;;;;;12.75;11.25;;;;;-146.67;100.00;57155.34;5044273;28;62120;-80
2024/01/09 03:13:08;;;;;;;;;13.50;12.50;;;;;-146.67;100.00;57155.34;5062240;28;61920;-79
2024/01/09 03:15:33;;;;;;;;;11.50;10.00;;;;;-146.67;100.00;57155.34;5062994;28;61792;-80
2024/01/09 03:18:02;;;;;;;;;17.67;14.00;;;;;-146.67;100.00;57155.34;5061231;28;61937;-80
2024/01/09 03:20:27;;;;;;;;;11.50;10.25;;;;;-146.67;100.00;57155.34;5044121;28;62605;-80
2024/01/09 03:22:52;;;;;;;;;24.50;15.00;;;;;-146.67;100.00;57155.34;5062455;28;61794;-80
2024/01/09 03:25:18;;;;;;;;;18.00;15.00;;;;;-146.67;100.00;57155.34;5062863;28;61652;-79
2024/01/09 03:27:43;;;;;;;;;21.50;14.50;;;;;-146.67;100.00;57155.34;5043551;28;63507;-80
2024/01/09 03:30:09;;;;;;;;;11.75;11.75;;;;;-146.67;100.00;57155.34;5062369;28;61875;-80
2024/01/09 03:32:34;;;;;;;;;19.75;16.00;;;;;-146.67;100.00;57155.34;5062656;28;61938;-80
2024/01/09 03:35:00;;;;;;;;;15.50;7.75;;;;;-146.67;100.00;57155.34;5062154;28;61838;-80
2024/01/09 03:37:25;;;;;;;;;10.75;8.25;;;;;-146.67;100.00;57155.34;5061967;28;61885;-80
2024/01/09 03:39:50;;;;;;;;;11.00;11.00;;;;;-146.67;100.00;57155.34;5044090;28;61787;-80
2024/01/09 03:42:16;;;;;;;;;13.00;11.50;;;;;-146.67;100.00;57155.34;5062151;28;61891;-80
2024/01/09 03:44:41;;;;;;;;;12.00;7.25;;;;;-146.67;100.00;57155.34;5062229;28;61944;-80
2024/01/09 03:47:06;;;;;;;;;15.00;10.75;;;;;-146.67;100.00;57155.34;5061550;28;61826;-80
2024/01/09 03:49:32;;;;;;;;;13.00;13.00;;;;;-146.67;100.00;57155.34;5061569;28;61771;-80
2024/01/09 03:51:58;;;;;;;;;14.25;9.50;;;;;-146.67;100.00;57155.34;5043919;28;61927;-79
2024/01/09 03:54:23;;;;;;;;;16.50;13.50;;;;;-146.67;100.00;57155.34;5062571;28;62013;-80
2024/01/09 03:56:49;;;;;;;;;18.00;12.00;;;;;-146.67;100.00;57155.34;5061118;28;62414;-80
2024/01/09 03:59:14;;;;;;;;;14.00;12.50;;;;;-146.67;100.00;57155.34;5061313;28;61751;-79
2024/01/09 04:01:40;;;;;;;;;16.25;14.50;;;;;-146.67;100.00;57155.34;5060889;28;62104;-80
2024/01/09 04:04:05;;;;;;;;;14.33;10.67;;;;;-146.67;100.00;57155.34;5061476;28;61707;-80
2024/01/09 04:06:32;;;;;;;;;13.00;11.00;;;;;-146.67;100.00;57155.34;5060278;28;61785;-80
2024/01/09 04:08:58;;;;;;;;;5.25;4.75;;;;;-146.67;100.00;57155.34;5043929;28;61774;-80
2024/01/09 04:11:23;;;;;;;;;16.25;9.50;;;;;-146.67;100.00;57155.34;5061263;28;62484;-80
2024/01/09 04:13:48;;;;;;;;;12.00;10.00;;;;;-146.67;100.00;57155.34;5061749;28;61822;-80
2024/01/09 04:16:14;;;;;;;;;12.50;10.00;;;;;-146.67;100.00;57155.34;5059736;28;63520;-80
2024/01/09 04:18:39;;;;;;;;;14.25;11.25;;;;;-146.67;100.00;57155.34;5061789;28;61952;-80
2024/01/09 04:21:05;;;;;;;;;11.00;11.00;;;;;-146.67;100.00;57155.34;5061593;28;61862;-80
2024/01/09 04:23:30;;;;;;;;;17.00;13.00;;;;;-146.67;100.00;57155.34;5061675;28;61978;-80
2024/01/09 04:25:56;;;;;;;;;16.75;14.50;;;;;-146.67;100.00;57155.34;5060097;28;63282;-80
2024/01/09 04:28:21;;;;;;;;;16.00;12.00;;;;;-146.67;100.00;57155.34;5061533;28;62397;-80
2024/01/09 04:30:46;;;;;;;;;10.75;10.00;;;;;-146.67;100.00;57155.34;5061670;28;62010;-80
2024/01/09 04:33:12;;;;;;;;;13.25;10.00;;;;;-146.67;100.00;57155.34;5061415;28;61766;-80
2024/01/09 04:35:37;;;;;;;;;12.50;12.50;;;;;-146.67;100.00;57155.34;5060675;28;62584;-80
2024/01/09 04:38:03;;;;;;;;;17.25;13.00;;;;;-146.67;100.00;57155.34;5061224;28;62643;-80
2024/01/09 04:40:28;;;;;;;;;20.00;13.50;;;;;-146.67;100.00;57155.34;5043355;28;61791;-80
2024/01/09 04:42:53;;;;;;;;;17.75;14.50;;;;;-146.67;100.00;57155.34;5061446;28;61786;-80
2024/01/09 04:45:19;;;;;;;;;11.00;9.00;;;;;-146.67;100.00;57155.34;5059145;28;65029;-80
2024/01/09 04:47:44;;;;;;;;;19.25;16.75;;;;;-146.67;100.00;57155.34;5061338;28;61918;-80
2024/01/09 04:50:10;;;;;;;;;11.75;9.75;;;;;-146.67;100.00;57155.34;5061260;28;61785;-80
2024/01/09 04:52:37;;;;;;;;;14.00;12.75;;;;;-146.67;100.00;57155.34;5061518;28;61872;-80
2024/01/09 04:55:03;;;;;;;;;15.75;11.50;;;;;-146.67;100.00;57155.34;5060411;28;61746;-80
2024/01/09 04:57:28;;;;;;;;;17.50;11.00;;;;;-146.67;100.00;57155.34;5059880;28;62392;-80
2024/01/09 04:59:53;;;;;;;;;16.75;10.00;;;;;-146.67;100.00;57155.34;5060949;28;61803;-80
2024/01/09 05:02:19;;;;;;;;;13.00;11.00;;;;;-146.67;100.00;57155.34;5061777;28;62104;-80
2024/01/09 05:04:44;;;;;;;;;15.50;11.00;;;;;-146.67;100.00;57155.34;5059902;28;61862;-80
2024/01/09 05:07:09;;;;;;;;;10.25;9.00;;;;;-146.67;100.00;57155.34;5060663;28;61838;-80
2024/01/09 05:09:35;;;;;;;;;21.50;12.00;;;;;-146.67;100.00;57155.34;5061057;28;62092;-80
2024/01/09 05:12:00;;;;;;;;;12.50;11.00;;;;;-146.67;100.00;57155.34;5061089;28;62099;-80
2024/01/09 05:14:26;;;;;;;;;15.50;13.00;;;;;-146.67;100.00;57155.34;5041929;28;63811;-80
2024/01/09 05:16:51;;;;;;;;;14.00;11.00;;;;;-146.67;100.00;57155.34;5060784;28;61778;-80
2024/01/09 05:19:20;;;;;;;;;11.00;10.25;;;;;-146.67;100.00;57155.34;5063189;28;61941;-80
2024/01/09 05:21:45;;;;;;;;;19.50;11.00;;;;;-146.67;100.00;57155.34;5064648;28;61712;-80
2024/01/09 05:24:11;;;;;;;;;17.00;10.25;;;;;-146.67;100.00;57155.34;5063332;28;63349;-80
2024/01/09 05:26:36;;;;;;;;;13.50;11.25;;;;;-146.67;100.00;57155.34;5064069;28;61656;-80
2024/01/09 05:29:01;;;;;;;;;14.00;10.00;;;;;-146.67;100.00;57155.34;5064389;28;61814;-80
2024/01/09 05:31:27;;;;;;;;;13.75;12.75;;;;;-146.67;100.00;57155.34;5064262;28;61772;-80
2024/01/09 05:33:52;;;;;;;;;11.75;9.75;;;;;-146.67;100.00;57155.34;5063101;28;61782;-79
2024/01/09 05:36:22;;;;;;;;;18.25;13.00;;;;;-146.67;100.00;57155.34;5046085;28;61871;-80
2024/01/09 05:38:51;;;;;;;;;17.00;13.00;;;;;-146.67;100.00;57155.34;5076364;28;61804;-80
2024/01/09 05:41:21;;;;;;;;;20.00;11.50;;;;;-146.67;100.00;57155.34;5071055;28;61731;-80
2024/01/09 05:43:46;;;;;;;;;19.75;14.25;;;;;-146.67;100.00;57155.34;5064307;28;62695;-80
2024/01/09 05:46:11;;;;;;;;;16.75;16.00;;;;;-146.67;100.00;57155.34;5064571;28;61961;-80
2024/01/09 05:48:37;;;;;;;;;15.50;13.25;;;;;-146.67;100.00;57155.34;5062657;28;61884;-79
2024/01/09 05:51:03;;;;;;;;;22.25;17.00;;;;;-146.67;100.00;57155.34;5064827;28;61774;-80
2024/01/09 05:53:30;;;;;;;;;18.75;15.50;;;;;-146.67;100.00;57155.34;5062853;28;61999;-80
2024/01/09 05:55:57;;;;;;;;;23.00;13.00;;;;;-146.67;100.00;57155.34;5064508;28;61881;-80
2024/01/09 05:58:23;;;;;;;;;12.25;11.75;;;;;-146.67;100.00;57155.34;5064790;28;61795;-80
2024/01/09 06:00:48;;;;;;;;;26.75;20.50;;;;;-146.67;100.00;57155.34;5063686;28;62171;-80
2024/01/09 06:03:13;;;;;;;;;18.50;16.50;;;;;-146.67;100.00;57155.34;5063138;28;61925;-80
2024/01/09 06:05:38;;;;;;;;;16.75;13.75;;;;;-146.67;100.00;57155.34;5063261;28;61789;-80
2024/01/09 06:08:04;;;;;;;;;19.75;14.75;;;;;-146.67;100.00;57155.34;5063300;28;62340;-80
2024/01/09 06:10:30;;;;;;;;;14.33;11.33;;;;;-146.67;100.00;57155.34;5063777;28;62125;-79
2024/01/09 06:12:55;;;;;;;;;26.33;19.33;;;;;-146.67;100.00;57155.34;5049314;28;63613;-79
2024/01/09 06:15:20;;;;;;;;;19.67;15.00;;;;;-146.67;100.00;57155.34;5053059;28;62130;-80
2024/01/09 06:17:54;;;;;;;;;27.67;22.33;;;;;-146.67;100.00;57155.34;5045034;28;61902;-80
2024/01/09 06:20:19;;;;;;;;;24.67;16.00;;;;;-146.67;100.00;57155.34;5063382;28;61644;-80
2024/01/09 06:22:44;;;;;;;;;32.67;21.33;;;;;-146.67;100.00;57155.34;5063841;28;61799;-79
2024/01/09 06:25:10;;;;;;;;;28.33;19.33;;;;;-146.67;100.00;57155.34;5046371;28;61911;-80
2024/01/09 06:27:36;;;;;;;;;21.50;17.25;;;;;-146.67;100.00;57155.34;5062463;28;61871;-80
2024/01/09 06:30:01;;;;;;;;;13.25;10.75;;;;;-146.67;100.00;57155.34;5062718;28;61810;-80
2024/01/09 06:32:26;;;;;;;;;36.33;23.67;;;;;-146.67;100.00;57155.34;5063053;28;61711;-81
2024/01/09 06:34:52;;;;;;;;;33.00;24.33;;;;;-146.67;100.00;57155.34;5062997;28;61707;-80
2024/01/09 06:37:17;;;;;;;;;22.00;13.00;;;;;-146.67;100.00;57155.34;5062552;28;62092;-80
2024/01/09 06:39:42;;;;;;;;;24.67;19.00;;;;;-146.67;100.00;57155.34;5062784;28;61722;-80
2024/01/09 06:42:08;;;;;;;;;32.67;22.67;;;;;-146.67;100.00;57155.34;5062047;28;62233;-80
2024/01/09 06:44:33;;;;;;;;;23.75;22.25;;;;;-146.67;100.00;57155.34;5060201;28;61914;-79
2024/01/09 06:46:58;;;;;;;;;28.50;22.00;;;;;-146.67;100.00;57155.34;5043837;28;62218;-78
2024/01/09 06:49:24;;;;;;;;;22.50;17.75;;;;;-146.67;100.00;57155.34;5060772;28;62565;-79
2024/01/09 06:51:49;;;;;;;;;29.33;19.33;;;;;-146.67;100.00;57155.34;5059751;28;61902;-77
2024/01/09 06:54:15;;;;;;;;;25.33;19.33;;;;;-146.67;100.00;57155.34;5058526;28;61859;-78
2024/01/09 06:56:46;;;;;;;;;21.00;17.67;;;;;-146.67;100.00;57155.34;5059343;28;61916;-78
2024/01/09 06:59:11;;;;;;;;;29.67;24.00;;;;;-146.67;100.00;57155.34;5056102;28;62168;-78
2024/01/09 07:01:38;;;;;;;;;28.00;23.00;;;;;-146.67;100.00;57155.34;5043051;28;64869;-79
2024/01/09 07:04:05;;;;;;;;;32.67;22.67;;;;;-146.67;100.00;57155.34;5061303;28;62033;-79
2024/01/09 07:06:30;;;;;;;;;26.67;18.00;;;;;-146.67;100.00;57155.34;5061862;28;62182;-79
2024/01/09 07:08:56;;;;;;;;;22.67;19.00;;;;;-146.67;100.00;57155.34;5061284;28;61714;-76
2024/01/09 07:11:21;;;;;;;;;25.00;21.25;;;;;-146.67;100.00;57155.34;5061035;28;62467;-79
2024/01/09 07:13:46;;;;;;;;;33.67;24.33;;;;;-146.67;100.00;57155.34;5042984;28;61911;-77
2024/01/09 07:16:12;;;;;;;;;29.00;24.67;;;;;-146.67;100.00;57155.34;5042861;28;61979;-78
2024/01/09 07:18:37;;;;;;;;;29.00;22.00;;;;;-146.67;100.00;57155.34;5061027;28;61929;-78
2024/01/09 07:21:03;;;;;;;;;42.67;27.67;;;;;-146.67;100.00;57155.34;5061398;28;61801;-78
2024/01/09 07:23:28;;;;;;;;;25.00;20.00;;;;;-146.67;100.00;57155.34;5062579;28;61774;-78
2024/01/09 07:25:54;;;;;;;;;21.25;17.50;;;;;-146.67;100.00;57155.34;5061546;28;61709;-78
2024/01/09 07:28:19;;;;;;;;;22.25;16.50;;;;;-146.67;100.00;57155.34;5043219;28;61860;-79
2024/01/09 07:30:45;;;;;;;;;30.50;22.00;;;;;-146.67;100.00;57155.34;5061580;28;61902;-77
2024/01/09 07:33:11;;;;;;;;;32.75;20.00;;;;;-146.67;100.00;57155.34;5062594;28;61792;-78
2024/01/09 07:35:37;;;;;;;;;22.00;19.00;;;;;-146.67;100.00;57155.34;5040329;28;61951;-78
2024/01/09 07:38:04;;;;;;;;;31.00;18.33;;;;;-146.67;100.00;57155.34;5060229;28;61897;-78
2024/01/09 07:40:29;;;;;;;;;25.67;22.00;;;;;-146.67;100.00;57155.34;5061505;28;61919;-78
2024/01/09 07:42:58;;;;;;;;;19.00;19.00;;;;;-146.67;100.00;57155.34;5057995;28;61838;-78
2024/01/09 07:45:28;;;;;;;;;22.33;18.33;;;;;-146.67;100.00;57155.34;5061325;28;61814;-78
2024/01/09 07:47:54;;;;;;;;;22.67;21.67;;;;;-146.67;100.00;57155.34;5059268;28;62033;-78
2024/01/09 07:50:19;;;;;;;;;28.67;20.00;;;;;-146.67;100.00;57155.34;5061215;28;61883;-79
2024/01/09 07:52:45;;;;;;;;;29.00;19.67;;;;;-146.67;100.00;57155.34;5054338;28;62116;-80
2024/01/09 07:55:11;;;;;;;;;26.25;21.00;;;;;-146.67;100.00;57155.34;5059574;28;62302;-80
2024/01/09 07:57:37;;;;;;;;;35.25;24.00;;;;;-146.67;100.00;57155.34;5043243;28;61967;-81
2024/01/09 08:00:04;;;;;;;;;30.33;27.67;;;;;-146.67;100.00;57155.34;5041979;28;63606;-79
2024/01/09 08:02:30;;;;;;;;;37.00;27.00;;;;;-146.67;100.00;57155.34;5054622;28;61863;-80
2024/01/09 08:04:55;;;;;;;;;6.50;5.25;;;;;-146.67;100.00;57155.34;5060553;28;61889;-80
2024/01/09 08:07:21;;;;;;;;;33.25;22.50;;;;;-146.67;100.00;57155.34;5060250;28;61991;-81
2024/01/09 08:09:46;;;;;;;;;29.00;21.50;;;;;-146.67;100.00;57155.34;5061334;28;62729;-80
2024/01/09 08:12:12;;;;;;;;;26.75;21.25;;;;;-146.67;100.00;57155.34;5061735;28;61806;-80
2024/01/09 08:14:37;;;;;;;;;45.67;34.33;;;;;-146.67;100.00;57155.34;5060347;28;61751;-80
2024/01/09 08:17:03;;;;;;;;;40.00;26.00;;;;;-146.67;100.00;57155.34;5060225;28;61778;-79
2024/01/09 08:19:29;;;;;;;;;39.67;27.00;;;;;-146.67;100.00;57155.34;5060149;28;63705;-79
2024/01/09 08:21:54;;;;;;;;;42.67;29.33;;;;;-146.67;100.00;57155.34;5061976;28;61808;-76
2024/01/09 08:24:20;;;;;;;;;38.67;27.00;;;;;-146.67;100.00;57155.34;5061456;28;62087;-76
2024/01/09 08:26:49;;;;;;;;;39.67;25.33;;;;;-146.67;100.00;57155.34;5061642;28;61738;-76
2024/01/09 08:29:17;;;;;;;;;32.67;20.67;;;;;-146.67;100.00;57155.34;5059336;28;64937;-76
2024/01/09 08:31:47;;;;;;;;;37.00;28.00;;;;;-146.67;100.00;57155.34;5061625;28;61717;-77
2024/01/09 08:34:14;;;;;;;;;34.67;24.33;;;;;-146.67;100.00;57155.34;5061172;28;61699;-76
2024/01/09 08:36:42;;;;;;;;;30.33;25.00;;;;;-146.67;100.00;57155.34;5060690;28;61831;-77
2024/01/09 08:39:09;;;;;;;;;37.67;28.00;;;;;-146.67;100.00;57155.34;5060914;28;61793;-76
2024/01/09 08:41:35;;;;;;;;;31.33;27.00;;;;;-146.67;100.00;57155.34;5061658;28;61884;-76
2024/01/09 08:44:01;;;;;;;;;39.33;25.33;;;;;-146.67;100.00;57155.34;5061515;28;61982;-76
2024/01/09 08:46:26;;;;;;;;;42.33;35.33;;;;;-146.67;100.00;57155.34;5061523;28;62376;-76
2024/01/09 08:48:52;;;;;;;;;42.67;29.33;;;;;-146.67;100.00;57155.34;5060787;28;61947;-76
2024/01/09 08:51:18;;;;;;;;;39.33;30.67;;;;;-146.67;100.00;57155.34;5043071;28;61882;-76
2024/01/09 08:53:45;;;;;;;;;37.67;30.33;;;;;-146.67;100.00;57155.34;5062959;28;61778;-75
2024/01/09 08:56:11;;;;;;;;;30.00;24.50;;;;;-146.67;100.00;57155.34;5065017;28;61898;-78
2024/01/09 08:58:38;;;;;;;;;61.00;47.00;;;;;-146.67;100.00;57155.34;5045551;28;64751;-76
2024/01/09 09:01:09;;;;;;;;;36.33;29.33;;;;;-146.67;100.00;57155.34;5063688;28;61868;-79
2024/01/09 09:03:40;;;;;;;;;32.00;24.33;;;;;-146.67;100.00;57155.34;5046313;28;62245;-79
2024/01/09 09:06:08;;;;;;;;;29.33;25.33;;;;;-146.67;100.00;57155.34;5065064;28;62047;-79
2024/01/09 09:08:36;;;;;;;;;44.33;29.00;;;;;-146.67;100.00;57155.34;5064101;28;62664;-79
2024/01/09 09:11:03;;;;;;;;;35.00;26.00;;;;;-146.67;100.00;57155.34;5063436;28;61923;-79
2024/01/09 09:13:30;;;;;;;;;31.67;26.33;;;;;-146.67;100.00;57155.34;5064173;28;61844;-80
2024/01/09 09:16:04;;;;;;;;;38.33;25.67;;;;;-146.67;100.00;57155.34;5064819;28;61754;-77
2024/01/09 09:18:31;;;;;;;;;36.67;27.67;;;;;-146.67;100.00;57155.34;5064032;28;61878;-80
2024/01/09 09:20:57;;;;;;;;;27.33;22.67;;;;;-146.67;100.00;57155.34;5064727;28;62103;-80
2024/01/09 09:23:23;;;;;;;;;26.50;19.00;;;;;-146.67;100.00;57155.34;5062854;28;62485;-79
2024/01/09 09:25:48;;;;;;;;;29.67;24.00;;;;;-146.67;100.00;57155.34;5064838;28;61821;-78
2024/01/09 09:28:13;;;;;;;;;47.00;28.33;;;;;-146.67;100.00;57155.34;5062628;28;64585;-79
2024/01/09 09:30:39;;;;;;;;;31.67;25.67;;;;;-146.67;100.00;57155.34;5062379;28;61959;-79
2024/01/09 09:33:04;;;;;;;;;33.33;21.33;;;;;-146.67;100.00;57155.34;5064684;28;61973;-84
2024/01/09 09:35:37;;;;;;;;;35.00;27.33;;;;;-146.67;100.00;57155.34;5063823;28;61987;-78
2024/01/09 09:38:04;;;;;;;;;28.00;22.33;;;;;-146.67;100.00;57155.34;5057193;28;64185;-77
2024/01/09 09:40:29;;;;;;;;;31.67;30.33;;;;;-146.67;100.00;57155.34;5063475;28;61797;-81
2024/01/09 09:42:58;;;;;;;;;39.33;29.00;;;;;-146.67;100.00;57155.34;5061463;28;62141;-79
2024/01/09 09:45:27;;;;;;;;;21.50;5.00;;;;;-146.67;100.00;57155.34;5063318;28;61891;-82
2024/01/09 09:47:56;;;;;;;;;29.50;24.50;;;;;-146.67;100.00;57155.34;5044896;28;63908;-82
2024/01/09 09:50:22;;;;;;;;;33.25;22.75;;;;;-146.67;100.00;57155.34;5064127;28;61992;-80
2024/01/09 09:52:48;;;;;;;;;26.67;25.33;;;;;-146.67;100.00;57155.34;5060622;28;61870;-79
2024/01/09 09:55:13;;;;;;;;;25.25;18.00;;;;;-146.67;100.00;57155.34;5044052;28;61814;-80
2024/01/09 09:57:39;;;;;;;;;20.25;20.00;;;;;-146.67;100.00;57155.34;5042630;28;61911;-79
2024/01/09 10:00:06;;;;;;;;;34.00;25.00;;;;;-146.67;100.00;57155.34;5042904;28;61971;-85
2024/01/09 10:02:33;;;;;;;;;26.33;23.33;;;;;-146.67;100.00;57155.34;5025465;28;61930;-83
2024/01/09 10:05:12;;;;;;;;;29.67;26.00;;;;;-146.67;100.00;57155.34;5042136;28;62054;-83
2024/01/09 10:07:38;;;;;;;;;27.50;20.25;;;;;-146.67;100.00;57155.34;5042635;28;61950;-85
2024/01/09 10:10:06;;;;;;;;;31.75;21.50;;;;;-146.67;100.00;57155.34;5043871;28;61815;-82
2024/01/09 10:12:33;;;;;;;;;23.75;20.00;;;;;-146.67;100.00;57155.34;5043410;28;61741;-80
2024/01/09 10:15:11;;;;;;;;;27.75;23.00;;;;;-146.67;100.00;57155.34;5043425;28;61905;-82
2024/01/09 10:17:40;;;;;;;;;33.33;24.33;;;;;-146.67;100.00;57155.34;5024658;28;63800;-81
2024/01/09 10:20:10;;;;;;;;;29.67;26.67;;;;;-146.67;100.00;57155.34;5025757;28;61847;-83
2024/01/09 10:22:38;;;;;;;;;32.33;25.00;;;;;-146.67;100.00;57155.34;5049615;28;61969;-79
2024/01/09 10:25:05;;;;;;;;;35.00;25.67;;;;;-146.67;100.00;57155.34;5063175;28;61763;-79
2024/01/09 10:27:30;;;;;;;;;35.33;26.33;;;;;-146.67;100.00;57155.34;5059953;28;64944;-78
2024/01/09 10:29:57;;;;;;;;;28.67;22.67;;;;;-146.67;100.00;57155.34;5044751;28;61852;-78
2024/01/09 10:32:23;;;;;;;;;29.75;25.50;;;;;-146.67;100.00;57155.34;5061851;28;61814;-79
2024/01/09 10:34:49;;;;;;;;;32.00;22.00;;;;;-146.67;100.00;57155.34;5062728;28;62175;-81
2024/01/09 10:37:14;;;;;;;;;30.25;27.00;;;;;-146.67;100.00;57155.34;5062028;28;61883;-78
2024/01/09 10:39:42;;;;;;;;;33.00;26.00;;;;;-146.67;100.00;57155.34;5063209;28;61952;-80
2024/01/09 10:42:09;;;;;;;;;31.00;22.50;;;;;-146.67;100.00;57155.34;5063423;28;62002;-81
2024/01/09 10:44:39;;;;;;;;;20.00;19.00;;;;;-146.67;100.00;57155.34;5041764;28;61915;-82
2024/01/09 10:47:09;;;;;;;;;29.33;21.33;;;;;-146.67;100.00;57155.34;5029000;28;63831;-81
2024/01/09 10:49:38;;;;;;;;;24.00;20.00;;;;;-146.67;100.00;57155.34;5065348;28;61674;-80